Cape Providence — 3EWQ — position and weather

sailwx.info

Track history (hours):
 
Tides and Currents Weather Stations Pressure Air Temp Water Temp Dewpoint Dewpoint Depression Visibility Wind Speed Wind Dir Waves Ship Positions

Cape Providence

Last reported at 2016-May-26 00:21 UTC. Time now 2016-May-28 20:37 UTC.
Position N 01°16' E 104°10'.

Length 292 m; draft 18.5 m.

Type: Cargo ship. MMSI: 372773000.

Date/timePositionNaut miles runAvg speedWind from/ knotsBaromVisibWave heightAir tempDewpointWater temp
2016-May-26 00:21N 01°16' E 104°10'8 9.4
2016-May-25 23:29N 01°17' E 104°02'0 0.2
2016-May-25 20:31N 01°17' E 104°02'0 0.0
2016-May-25 19:31N 01°17' E 104°02'0 0.1
2016-May-25 18:07N 01°17' E 104°02'0 0.1
2016-May-25 15:13N 01°17' E 104°01'0 0.1
2016-May-25 14:25N 01°17' E 104°01'0 0.1
2016-May-25 13:13N 01°17' E 104°01'0 0.0
2016-May-25 12:25N 01°17' E 104°01'0 0.1
2016-May-25 11:31N 01°17' E 104°01'0 0.1
2016-May-25 10:33N 01°17' E 104°01'5 5.2
2016-May-25 09:34N 01°14' E 103°57'5 5.4
2016-May-25 08:33N 01°12' E 103°52'8 8.0
2016-May-25 07:33N 01°08' E 103°45'9 8.7
2016-May-25 06:33N 01°04' E 103°38'9 8.8
2016-May-25 05:31N 01°08' E 103°30'7111.9
2016-May-24 23:30N 01°46' E 102°30'1010.5
2016-May-24 22:33N 01°50' E 102°21'  
Track history (hours):
 
Tides and Currents Weather Stations Pressure Air Temp Water Temp Dewpoint Dewpoint Depression Visibility Wind Speed Wind Dir Waves Ship Positions

Cape Providence

Last reported at 2016-May-26 00:21 UTC. Time now 2016-May-28 20:37 UTC.
Position N 01°16' E 104°10'.

Length 292 m; draft 18.5 m.

Type: Cargo ship. MMSI: 372773000.

Date/timePositionNaut miles runAvg speedWind from/ knotsBaromVisibWave heightAir tempDewpointWater temp
2016-May-26 00:21N 01°16' E 104°10'8 9.4
2016-May-25 23:29N 01°17' E 104°02'0 0.2
2016-May-25 20:31N 01°17' E 104°02'0 0.0
2016-May-25 19:31N 01°17' E 104°02'0 0.1
2016-May-25 18:07N 01°17' E 104°02'0 0.1
2016-May-25 15:13N 01°17' E 104°01'0 0.1
2016-May-25 14:25N 01°17' E 104°01'0 0.1
2016-May-25 13:13N 01°17' E 104°01'0 0.0
2016-May-25 12:25N 01°17' E 104°01'0 0.1
2016-May-25 11:31N 01°17' E 104°01'0 0.1
2016-May-25 10:33N 01°17' E 104°01'5 5.2
2016-May-25 09:34N 01°14' E 103°57'5 5.4
2016-May-25 08:33N 01°12' E 103°52'8 8.0
2016-May-25 07:33N 01°08' E 103°45'9 8.7
2016-May-25 06:33N 01°04' E 103°38'9 8.8
2016-May-25 05:31N 01°08' E 103°30'7111.9
2016-May-24 23:30N 01°46' E 102°30'1010.5
2016-May-24 22:33N 01°50' E 102°21'  

Dump ship's entire track history